Time;durP1;ratioP1;P1;durP2;ratioP2;P2;SDS_P1;SDS_P2;PMS_P1;PMS_P2;Temp;Humidity;BMP_temperature;BMP_pressure;BME280_temperature;BME280_humidity;BME280_pressure;Samples;Min_cycle;Max_cycle;Signal;HPM_P1;HPM_P2
2022/09/02 00:00:26;;;;;;;6.82;1.20;;;;;;;;;;4966629;28;20058;-88
2022/09/02 00:02:53;;;;;;;1.05;0.95;;;;;;;;;;4959665;28;20077;-87
2022/09/02 00:05:19;;;;;;;15.27;1.75;;;;;;;;;;4946697;28;20058;-88
2022/09/02 00:07:45;;;;;;;6.60;1.30;;;;;;;;;;4972961;28;20125;-87
2022/09/02 00:10:11;;;;;;;4.22;1.55;;;;;;;;;;4958987;28;20050;-88
2022/09/02 00:12:37;;;;;;;3.70;1.88;;;;;;;;;;4950356;28;20041;-87
2022/09/02 00:15:04;;;;;;;3.60;2.08;;;;;;;;;;4945922;28;20038;-87
2022/09/02 00:17:30;;;;;;;3.90;2.40;;;;;;;;;;4964153;28;20449;-87
2022/09/02 00:19:56;;;;;;;4.25;2.03;;;;;;;;;;4962970;28;20046;-86
2022/09/02 00:22:22;;;;;;;3.90;1.88;;;;;;;;;;4950998;28;20138;-87
2022/09/02 00:24:48;;;;;;;3.00;2.10;;;;;;;;;;4978329;28;20019;-87
2022/09/02 00:27:15;;;;;;;5.20;2.15;;;;;;;;;;4951090;28;20039;-88
2022/09/02 00:29:41;;;;;;;5.47;2.33;;;;;;;;;;4964540;28;20387;-88
2022/09/02 00:32:07;;;;;;;5.38;2.13;;;;;;;;;;4952280;28;20043;-88
2022/09/02 00:34:33;;;;;;;4.28;1.75;;;;;;;;;;4965825;28;20046;-88
2022/09/02 00:36:59;;;;;;;3.63;2.20;;;;;;;;;;4962243;28;20030;-88
2022/09/02 00:39:25;;;;;;;1.85;1.60;;;;;;;;;;4953183;28;20031;-88
2022/09/02 00:41:51;;;;;;;6.22;2.00;;;;;;;;;;4948035;28;20042;-88
2022/09/02 00:44:18;;;;;;;4.05;2.00;;;;;;;;;;4981328;28;20088;-88
2022/09/02 00:46:45;;;;;;;3.67;1.88;;;;;;;;;;4963540;28;20062;-87
2022/09/02 00:49:14;;;;;;;3.25;2.45;;;;;;;;;;4978535;28;20045;-88
2022/09/02 00:51:45;;;;;;;2.40;2.15;;;;;;;;;;4964952;28;20034;-88
2022/09/02 00:54:12;;;;;;;7.30;3.00;;;;;;;;;;4963257;28;20030;-88
2022/09/02 00:56:39;;;;;;;3.63;3.03;;;;;;;;;;4961495;28;20484;-88
2022/09/02 00:59:06;;;;;;;5.53;2.60;;;;;;;;;;4961448;28;20391;-88
2022/09/02 01:01:32;;;;;;;5.95;2.78;;;;;;;;;;4960369;28;20050;-88
2022/09/02 01:03:58;;;;;;;3.40;2.33;;;;;;;;;;4963188;28;20477;-88
2022/09/02 01:06:26;;;;;;;4.57;3.10;;;;;;;;;;4962427;28;20061;-88
2022/09/02 01:08:55;;;;;;;9.60;3.15;;;;;;;;;;4964877;28;20034;-88
2022/09/02 01:11:22;;;;;;;4.63;2.53;;;;;;;;;;4982105;28;20037;-88
2022/09/02 01:13:48;;;;;;;4.05;3.03;;;;;;;;;;4966521;28;20129;-88
2022/09/02 01:16:14;;;;;;;3.53;2.22;;;;;;;;;;4966407;28;20077;-88
2022/09/02 01:18:40;;;;;;;3.80;2.60;;;;;;;;;;4979012;28;20364;-88
2022/09/02 01:21:06;;;;;;;7.72;3.03;;;;;;;;;;4978895;28;20065;-87
2022/09/02 01:23:34;;;;;;;4.88;3.65;;;;;;;;;;4974866;28;20101;-88
2022/09/02 01:26:00;;;;;;;5.32;3.45;;;;;;;;;;4961051;28;20039;-88
2022/09/02 01:28:26;;;;;;;6.13;3.17;;;;;;;;;;4951037;28;20133;-88
2022/09/02 01:30:53;;;;;;;7.95;3.42;;;;;;;;;;4945531;28;20046;-88
2022/09/02 01:33:21;;;;;;;7.35;3.22;;;;;;;;;;4966757;28;20038;-87
2022/09/02 01:35:47;;;;;;;5.70;2.35;;;;;;;;;;4963250;28;20421;-88
2022/09/02 01:38:13;;;;;;;2.67;2.33;;;;;;;;;;4970242;28;20035;-88
2022/09/02 01:40:40;;;;;;;4.75;2.72;;;;;;;;;;4946772;28;20058;-87
2022/09/02 01:43:08;;;;;;;4.95;2.47;;;;;;;;;;4965154;28;20073;-87
2022/09/02 01:45:35;;;;;;;3.85;2.45;;;;;;;;;;4978735;28;20415;-87
2022/09/02 01:48:02;;;;;;;7.30;2.50;;;;;;;;;;4966873;28;20406;-88
2022/09/02 01:50:28;;;;;;;3.67;2.00;;;;;;;;;;4951767;28;20072;-88
2022/09/02 01:52:54;;;;;;;8.07;1.80;;;;;;;;;;4977194;28;20450;-88
2022/09/02 01:55:21;;;;;;;3.47;2.05;;;;;;;;;;4965207;28;20483;-88
2022/09/02 01:57:47;;;;;;;2.72;1.70;;;;;;;;;;4966850;28;20498;-88
2022/09/02 02:00:15;;;;;;;3.90;2.05;;;;;;;;;;4960968;28;20617;-88
2022/09/02 02:02:41;;;;;;;2.30;2.00;;;;;;;;;;4978295;28;20514;-88
2022/09/02 02:05:08;;;;;;;3.13;2.22;;;;;;;;;;4971623;28;20094;-88
2022/09/02 02:07:34;;;;;;;3.53;1.83;;;;;;;;;;4940951;28;20027;-88
2022/09/02 02:10:00;;;;;;;2.20;1.88;;;;;;;;;;4960100;28;20034;-88
2022/09/02 02:12:26;;;;;;;4.05;1.95;;;;;;;;;;4944489;28;20122;-88
2022/09/02 02:14:52;;;;;;;4.50;1.90;;;;;;;;;;4965486;28;20411;-87
2022/09/02 02:17:18;;;;;;;4.97;1.90;;;;;;;;;;4962221;28;20034;-87
2022/09/02 02:19:44;;;;;;;2.10;1.85;;;;;;;;;;4971728;28;20562;-87
2022/09/02 02:22:23;;;;;;;3.58;2.20;;;;;;;;;;4951845;28;20137;-87
2022/09/02 02:24:49;;;;;;;5.68;2.20;;;;;;;;;;4955826;28;20130;-88
2022/09/02 02:27:15;;;;;;;2.90;2.08;;;;;;;;;;4948756;28;20026;-88
2022/09/02 02:29:41;;;;;;;6.53;2.30;;;;;;;;;;4963335;28;20046;-88
2022/09/02 02:32:07;;;;;;;4.15;2.30;;;;;;;;;;4968308;28;20278;-88
2022/09/02 02:34:34;;;;;;;2.95;2.30;;;;;;;;;;4975206;28;20038;-88
2022/09/02 02:37:00;;;;;;;2.53;2.20;;;;;;;;;;4962280;28;20062;-88
2022/09/02 02:39:26;;;;;;;2.83;2.50;;;;;;;;;;4965634;28;20095;-88
2022/09/02 02:41:52;;;;;;;4.90;2.33;;;;;;;;;;4951020;28;20134;-88
2022/09/02 02:44:18;;;;;;;2.30;2.10;;;;;;;;;;4977722;28;20031;-88
2022/09/02 02:46:44;;;;;;;3.25;2.08;;;;;;;;;;4957645;28;20483;-87
2022/09/02 02:49:10;;;;;;;3.03;2.50;;;;;;;;;;4950639;28;20037;-87
2022/09/02 02:51:37;;;;;;;5.32;2.60;;;;;;;;;;4943750;28;20177;-87
2022/09/02 02:54:04;;;;;;;2.72;2.17;;;;;;;;;;4961838;28;20026;-88
2022/09/02 02:56:30;;;;;;;8.07;2.15;;;;;;;;;;4977921;28;20061;-88
2022/09/02 02:59:01;;;;;;;7.82;2.45;;;;;;;;;;4961811;28;20520;-89
2022/09/02 03:01:27;;;;;;;2.63;2.30;;;;;;;;;;4977011;28;20023;-88
2022/09/02 03:03:54;;;;;;;3.38;2.38;;;;;;;;;;4964392;28;20045;-89
2022/09/02 03:06:20;;;;;;;5.15;2.30;;;;;;;;;;4948779;28;20037;-88
2022/09/02 03:08:47;;;;;;;3.25;2.47;;;;;;;;;;4978412;28;20444;-89
2022/09/02 03:11:13;;;;;;;4.75;2.50;;;;;;;;;;4963109;28;20181;-88
2022/09/02 03:13:39;;;;;;;6.63;2.45;;;;;;;;;;4951817;28;20573;-86
2022/09/02 03:16:05;;;;;;;4.68;2.28;;;;;;;;;;4945529;28;20045;-85
2022/09/02 03:18:32;;;;;;;5.85;2.92;;;;;;;;;;4964379;28;20674;-86
2022/09/02 03:20:58;;;;;;;5.93;2.67;;;;;;;;;;4979520;28;20045;-85
2022/09/02 03:23:24;;;;;;;4.13;2.30;;;;;;;;;;4944668;28;20030;-85
2022/09/02 03:25:50;;;;;;;7.88;2.35;;;;;;;;;;4938956;28;20525;-86
2022/09/02 03:28:17;;;;;;;8.25;4.30;;;;;;;;;;4963629;28;20528;-85
2022/09/02 03:30:44;;;;;;;5.00;2.75;;;;;;;;;;4980261;28;20054;-85
2022/09/02 03:33:10;;;;;;;8.10;2.50;;;;;;;;;;4960474;28;20509;-84
2022/09/02 03:35:40;;;;;;;3.72;2.47;;;;;;;;;;4964675;28;20066;-86
2022/09/02 03:38:07;;;;;;;3.47;2.40;;;;;;;;;;4981932;28;20041;-85
2022/09/02 03:40:34;;;;;;;2.97;2.20;;;;;;;;;;4970366;28;20077;-86
2022/09/02 03:43:00;;;;;;;4.63;2.65;;;;;;;;;;4978281;28;20478;-86
2022/09/02 03:45:26;;;;;;;11.48;2.70;;;;;;;;;;4960899;28;20097;-85
2022/09/02 03:47:53;;;;;;;6.13;2.35;;;;;;;;;;4965733;28;20093;-85
2022/09/02 03:50:30;;;;;;;3.20;2.35;;;;;;;;;;4946798;28;20308;-85
2022/09/02 03:52:57;;;;;;;6.80;2.30;;;;;;;;;;4964485;28;20033;-87
2022/09/02 03:55:23;;;;;;;5.82;2.25;;;;;;;;;;4962549;28;20837;-86
2022/09/02 03:57:49;;;;;;;2.63;2.20;;;;;;;;;;4967855;28;20486;-86
2022/09/02 04:00:17;;;;;;;4.60;2.17;;;;;;;;;;4977602;28;20034;-86
2022/09/02 04:02:44;;;;;;;4.07;2.10;;;;;;;;;;4955206;28;20038;-86
2022/09/02 04:05:11;;;;;;;2.80;2.17;;;;;;;;;;4965881;28;20069;-86
2022/09/02 04:07:37;;;;;;;3.67;2.22;;;;;;;;;;4967129;28;20462;-86
2022/09/02 04:10:04;;;;;;;3.35;2.80;;;;;;;;;;4974969;28;20043;-87
2022/09/02 04:12:30;;;;;;;3.38;2.03;;;;;;;;;;4960592;28;20042;-86
2022/09/02 04:14:56;;;;;;;3.97;2.40;;;;;;;;;;4962674;28;20105;-86
2022/09/02 04:17:22;;;;;;;10.18;2.35;;;;;;;;;;4977375;28;20089;-86
2022/09/02 04:19:48;;;;;;;6.15;2.38;;;;;;;;;;4963857;28;20126;-86
2022/09/02 04:22:14;;;;;;;3.92;1.95;;;;;;;;;;4937626;28;20376;-86
2022/09/02 04:24:40;;;;;;;4.93;2.00;;;;;;;;;;4945334;28;20043;-86
2022/09/02 04:27:06;;;;;;;4.82;2.35;;;;;;;;;;4932098;28;20113;-85
2022/09/02 04:29:32;;;;;;;3.28;2.17;;;;;;;;;;4939427;28;20047;-86
2022/09/02 04:31:58;;;;;;;6.38;1.95;;;;;;;;;;4943370;28;20484;-86
2022/09/02 04:34:24;;;;;;;3.78;2.00;;;;;;;;;;4942257;28;20042;-86
2022/09/02 04:36:51;;;;;;;6.05;2.42;;;;;;;;;;4940409;28;20114;-86
2022/09/02 04:39:18;;;;;;;5.35;1.88;;;;;;;;;;4937514;28;20038;-87
2022/09/02 04:41:44;;;;;;;5.47;2.50;;;;;;;;;;4937324;28;20031;-86
2022/09/02 04:44:10;;;;;;;3.25;2.00;;;;;;;;;;4932799;28;20035;-86
2022/09/02 04:46:36;;;;;;;4.93;2.28;;;;;;;;;;4933819;28;20039;-86
2022/09/02 04:49:03;;;;;;;6.88;2.22;;;;;;;;;;4967000;28;20030;-86
2022/09/02 04:51:29;;;;;;;2.67;2.08;;;;;;;;;;4964449;28;20478;-86
2022/09/02 04:53:55;;;;;;;7.63;2.40;;;;;;;;;;4947115;28;20062;-86
2022/09/02 04:56:23;;;;;;;4.90;2.45;;;;;;;;;;4959884;28;20027;-87
2022/09/02 04:58:50;;;;;;;4.55;2.92;;;;;;;;;;4943607;28;20447;-87
2022/09/02 05:01:21;;;;;;;2.58;2.30;;;;;;;;;;4944623;28;20119;-86
2022/09/02 05:03:48;;;;;;;7.38;2.47;;;;;;;;;;4953194;28;20034;-86
2022/09/02 05:06:15;;;;;;;4.20;2.10;;;;;;;;;;4933694;28;20393;-86
2022/09/02 05:08:42;;;;;;;6.78;2.42;;;;;;;;;;4961902;28;20055;-87
2022/09/02 05:11:09;;;;;;;3.53;2.25;;;;;;;;;;4946991;28;20054;-86
2022/09/02 05:13:35;;;;;;;3.47;2.28;;;;;;;;;;4945790;28;20034;-87
2022/09/02 05:16:01;;;;;;;3.42;2.25;;;;;;;;;;4944771;28;20555;-86
2022/09/02 05:18:27;;;;;;;3.83;2.35;;;;;;;;;;4942951;29;20476;-85
2022/09/02 05:20:53;;;;;;;5.82;2.78;;;;;;;;;;4919431;28;20514;-86
2022/09/02 05:23:20;;;;;;;5.35;2.42;;;;;;;;;;4963460;28;20038;-85
2022/09/02 05:25:46;;;;;;;3.28;2.03;;;;;;;;;;4948780;28;20035;-86
2022/09/02 05:28:12;;;;;;;6.97;2.13;;;;;;;;;;4951111;28;20034;-86
2022/09/02 05:30:39;;;;;;;3.95;2.00;;;;;;;;;;4978814;28;20042;-87
2022/09/02 05:33:05;;;;;;;5.28;2.17;;;;;;;;;;4964682;28;20031;-88
2022/09/02 05:35:31;;;;;;;4.72;2.08;;;;;;;;;;4952168;28;20050;-88
2022/09/02 05:37:57;;;;;;;2.78;2.15;;;;;;;;;;4957858;28;20066;-88
2022/09/02 05:40:23;;;;;;;1.80;1.70;;;;;;;;;;4960319;28;20045;-88
2022/09/02 05:42:49;;;;;;;4.05;2.20;;;;;;;;;;4940248;28;20046;-88
2022/09/02 05:45:15;;;;;;;3.67;2.00;;;;;;;;;;4964672;28;20487;-87
2022/09/02 05:47:41;;;;;;;5.85;2.05;;;;;;;;;;4965364;28;20034;-87
2022/09/02 05:50:08;;;;;;;5.68;1.60;;;;;;;;;;4949161;28;20045;-87
2022/09/02 05:52:34;;;;;;;4.25;1.95;;;;;;;;;;4964643;28;20049;-88
2022/09/02 05:55:01;;;;;;;2.67;2.13;;;;;;;;;;4962812;28;20260;-88
2022/09/02 05:57:27;;;;;;;3.40;2.25;;;;;;;;;;4963539;28;20456;-88
2022/09/02 05:59:55;;;;;;;3.30;1.80;;;;;;;;;;4947241;28;20614;-87
2022/09/02 06:02:22;;;;;;;1.98;1.75;;;;;;;;;;4969950;28;20474;-88
2022/09/02 06:04:50;;;;;;;2.38;1.70;;;;;;;;;;4982754;28;20038;-89
2022/09/02 06:07:16;;;;;;;4.43;2.00;;;;;;;;;;4945782;28;20046;-88
2022/09/02 06:09:43;;;;;;;13.85;4.03;;;;;;;;;;4968248;28;20146;-88
2022/09/02 06:12:10;;;;;;;3.13;2.20;;;;;;;;;;4970295;28;20478;-88
2022/09/02 06:14:36;;;;;;;9.85;1.90;;;;;;;;;;4983033;28;20034;-88
2022/09/02 06:17:03;;;;;;;3.13;2.10;;;;;;;;;;4964074;28;20633;-87
2022/09/02 06:19:31;;;;;;;3.90;1.65;;;;;;;;;;4983076;28;20045;-88
2022/09/02 06:21:58;;;;;;;5.65;2.00;;;;;;;;;;4958658;28;20051;-89
2022/09/02 06:24:24;;;;;;;8.85;2.00;;;;;;;;;;4977510;28;20045;-88
2022/09/02 06:26:51;;;;;;;2.75;1.80;;;;;;;;;;4965532;28;20026;-88
2022/09/02 06:29:18;;;;;;;4.50;1.70;;;;;;;;;;4968732;28;20057;-88
2022/09/02 06:31:45;;;;;;;2.53;1.92;;;;;;;;;;4991236;28;20395;-88
2022/09/02 06:34:12;;;;;;;2.33;1.60;;;;;;;;;;4951891;28;20391;-88
2022/09/02 06:36:38;;;;;;;6.50;2.03;;;;;;;;;;4984110;28;20023;-88
2022/09/02 06:39:05;;;;;;;3.45;2.00;;;;;;;;;;4968971;28;20491;-88
2022/09/02 06:41:33;;;;;;;2.70;1.70;;;;;;;;;;4981137;28;20058;-88
2022/09/02 06:44:01;;;;;;;1.98;1.60;;;;;;;;;;4981884;28;20028;-88
2022/09/02 06:46:47;;;;;;;33.45;3.30;;;;;;;;;;4980574;28;20046;-89
2022/09/02 06:49:15;;;;;;;;;;;;;;;;;;4986182;28;20030;-88
2022/09/02 06:51:42;;;;;;;8.40;2.03;;;;;;;;;;4970335;28;19957;-90
2022/09/02 06:54:09;;;;;;;6.35;2.17;;;;;;;;;;4979928;28;20046;-88
2022/09/02 06:56:49;;;;;;;2.15;1.90;;;;;;;;;;4970369;28;20026;-85
2022/09/02 06:59:15;;;;;;;4.55;2.10;;;;;;;;;;4966331;28;20394;-88
2022/09/02 07:01:42;;;;;;;84.85;11.63;;;;;;;;;;4952347;28;20100;-88
2022/09/02 07:06:53;;;;;;;3.20;2.40;;;;;;;;;;4970612;28;20065;-90
2022/09/02 07:09:21;;;;;;;2.75;1.70;;;;;;;;;;4983634;28;20038;-86
2022/09/02 07:11:48;;;;;;;3.72;2.05;;;;;;;;;;4987065;28;20069;-87
2022/09/02 07:14:15;;;;;;;3.03;2.10;;;;;;;;;;4964173;28;20478;-87
2022/09/02 07:16:49;;;;;;;6.47;2.00;;;;;;;;;;4948035;28;20051;-87
2022/09/02 07:19:16;;;;;;;4.60;2.03;;;;;;;;;;4957964;28;20030;-86
2022/09/02 07:21:42;;;;;;;6.05;1.85;;;;;;;;;;4967660;28;20126;-87
2022/09/02 07:24:09;;;;;;;4.18;1.83;;;;;;;;;;4978776;28;20565;-87
2022/09/02 07:26:35;;;;;;;2.85;2.17;;;;;;;;;;4977055;28;20511;-86
2022/09/02 07:29:01;;;;;;;3.53;2.03;;;;;;;;;;4947398;28;20038;-87
2022/09/02 07:31:28;;;;;;;4.63;1.55;;;;;;;;;;4972735;28;20055;-87
2022/09/02 07:33:57;;;;;;;6.07;2.10;;;;;;;;;;4963266;28;20372;-87
2022/09/02 07:36:24;;;;;;;6.03;1.70;;;;;;;;;;4960341;28;20562;-86
2022/09/02 07:38:50;;;;;;;7.50;2.30;;;;;;;;;;4962084;28;20518;-87
2022/09/02 07:41:16;;;;;;;4.50;2.10;;;;;;;;;;4947862;28;20122;-87
2022/09/02 07:43:42;;;;;;;3.70;1.77;;;;;;;;;;4936961;28;20038;-87
2022/09/02 07:46:08;;;;;;;3.25;2.08;;;;;;;;;;4961212;28;20533;-87
2022/09/02 07:48:35;;;;;;;6.63;1.95;;;;;;;;;;4978117;28;20030;-87
2022/09/02 07:51:01;;;;;;;3.70;1.75;;;;;;;;;;4963293;28;20117;-86
2022/09/02 07:53:28;;;;;;;3.95;1.55;;;;;;;;;;4963430;28;20124;-86
2022/09/02 07:55:54;;;;;;;1.83;1.70;;;;;;;;;;4959675;28;20779;-87
2022/09/02 07:58:21;;;;;;;3.58;2.05;;;;;;;;;;4962224;28;20111;-86
2022/09/02 08:00:48;;;;;;;4.25;2.03;;;;;;;;;;4960878;28;20034;-87
2022/09/02 08:03:14;;;;;;;2.83;2.13;;;;;;;;;;4964933;28;20404;-87
2022/09/02 08:05:40;;;;;;;3.53;1.60;;;;;;;;;;4962384;28;20037;-87
2022/09/02 08:08:07;;;;;;;9.02;2.95;;;;;;;;;;4960555;28;20030;-87
2022/09/02 08:10:34;;;;;;;4.68;2.10;;;;;;;;;;4960607;28;20049;-86
2022/09/02 08:13:00;;;;;;;6.75;1.90;;;;;;;;;;4963650;28;20045;-87
2022/09/02 08:15:27;;;;;;;4.10;1.75;;;;;;;;;;4958388;28;20042;-88
2022/09/02 08:17:54;;;;;;;2.40;1.63;;;;;;;;;;4962176;28;21307;-87
2022/09/02 08:20:23;;;;;;;4.70;1.95;;;;;;;;;;4963776;28;20057;-87
2022/09/02 08:22:50;;;;;;;1.88;1.73;;;;;;;;;;4982805;28;20050;-87
2022/09/02 08:25:17;;;;;;;3.88;2.42;;;;;;;;;;4966403;28;20026;-88
2022/09/02 08:27:43;;;;;;;3.60;2.00;;;;;;;;;;4963037;28;20818;-87
2022/09/02 08:30:10;;;;;;;7.35;1.80;;;;;;;;;;4964527;28;20233;-87
2022/09/02 08:32:36;;;;;;;2.80;2.08;;;;;;;;;;4966950;28;20599;-87
2022/09/02 08:35:03;;;;;;;4.15;1.70;;;;;;;;;;4973906;28;20031;-87
2022/09/02 08:37:32;;;;;;;2.58;1.92;;;;;;;;;;4976441;28;20086;-87
2022/09/02 08:40:03;;;;;;;5.78;1.98;;;;;;;;;;4967062;28;20042;-86
2022/09/02 08:42:32;;;;;;;2.70;1.80;;;;;;;;;;4979328;28;20026;-87
2022/09/02 08:45:18;;;;;;;2.70;1.73;;;;;;;;;;4980740;28;20041;-87
2022/09/02 08:47:47;;;;;;;3.20;1.90;;;;;;;;;;4968113;28;20050;-87
2022/09/02 08:50:18;;;;;;;3.83;1.90;;;;;;;;;;4964663;28;20045;-87
2022/09/02 08:52:50;;;;;;;2.85;2.03;;;;;;;;;;4967013;28;20533;-87
2022/09/02 08:55:19;;;;;;;3.67;1.80;;;;;;;;;;4979071;28;20026;-87
2022/09/02 08:57:45;;;;;;;6.68;2.03;;;;;;;;;;4966803;28;20550;-87
2022/09/02 09:00:13;;;;;;;1.83;1.65;;;;;;;;;;4980128;28;20585;-87
2022/09/02 09:03:05;;;;;;;3.13;1.80;;;;;;;;;;4952148;28;20046;-87
2022/09/02 09:05:40;;;;;;;3.85;2.35;;;;;;;;;;4943104;28;21383;-87
2022/09/02 09:08:27;;;;;;;3.67;1.90;;;;;;;;;;4980713;28;20482;-87
2022/09/02 09:11:01;;;;;;;4.65;2.20;;;;;;;;;;4963567;28;20054;-87
2022/09/02 09:13:46;;;;;;;13.10;2.40;;;;;;;;;;4978235;28;20087;-87
2022/09/02 09:16:18;;;;;;;3.50;1.77;;;;;;;;;;4974313;28;20061;-87
2022/09/02 09:19:03;;;;;;;8.35;1.90;;;;;;;;;;4979388;28;20049;-88
2022/09/02 09:21:32;;;;;;;12.85;2.25;;;;;;;;;;4965729;28;20132;-88
2022/09/02 09:24:00;;;;;;;5.82;2.92;;;;;;;;;;4970234;28;20058;-86
2022/09/02 09:26:29;;;;;;;7.90;5.15;;;;;;;;;;4974125;28;20569;-87
2022/09/02 09:28:55;;;;;;;5.03;2.40;;;;;;;;;;4961978;28;20121;-86
2022/09/02 09:31:23;;;;;;;4.28;2.63;;;;;;;;;;4963028;28;20041;-87
2022/09/02 09:34:02;;;;;;;2.97;1.90;;;;;;;;;;4970138;28;20054;-87
2022/09/02 09:36:40;;;;;;;3.30;2.90;;;;;;;;;;4980236;28;20027;-87
2022/09/02 09:39:18;;;;;;;4.43;2.00;;;;;;;;;;4965861;28;20030;-86
2022/09/02 09:41:45;;;;;;;6.75;2.42;;;;;;;;;;4962858;28;20022;-86
2022/09/02 09:44:27;;;;;;;2.70;2.42;;;;;;;;;;4967324;28;20037;-86
2022/09/02 09:47:05;;;;;;;7.10;1.95;;;;;;;;;;4963311;28;20061;-87
2022/09/02 09:49:32;;;;;;;8.02;1.88;;;;;;;;;;4961803;28;20038;-87
2022/09/02 09:51:59;;;;;;;7.85;2.13;;;;;;;;;;4961267;28;20065;-87
2022/09/02 09:54:26;;;;;;;7.07;2.47;;;;;;;;;;4964684;28;20517;-87
2022/09/02 09:56:53;;;;;;;3.20;2.35;;;;;;;;;;4963961;28;20026;-86
2022/09/02 09:59:35;;;;;;;3.63;2.03;;;;;;;;;;4963380;28;20053;-86
2022/09/02 10:02:01;;;;;;;3.28;1.55;;;;;;;;;;4966593;28;20053;-86
2022/09/02 10:04:31;;;;;;;5.22;3.38;;;;;;;;;;4946472;28;20045;-86
2022/09/02 10:06:57;;;;;;;10.82;2.20;;;;;;;;;;4963642;28;20455;-86
2022/09/02 10:09:26;;;;;;;6.53;1.90;;;;;;;;;;4975584;28;20660;-87
2022/09/02 10:11:56;;;;;;;4.95;1.92;;;;;;;;;;4973260;28;20038;-86
2022/09/02 10:14:22;;;;;;;7.20;2.42;;;;;;;;;;4972365;28;20063;-87
2022/09/02 10:17:07;;;;;;;3.20;1.73;;;;;;;;;;4958084;28;20399;-86
2022/09/02 10:19:52;;;;;;;4.93;1.92;;;;;;;;;;4977055;28;20030;-86
2022/09/02 10:22:27;;;;;;;6.88;2.13;;;;;;;;;;4973697;28;20050;-87
2022/09/02 10:25:12;;;;;;;41.05;5.45;;;;;;;;;;4962412;28;20034;-86
2022/09/02 10:27:50;;;;;;;4.32;1.80;;;;;;;;;;4964354;28;20425;-86
2022/09/02 10:30:19;;;;;;;7.78;2.15;;;;;;;;;;4968381;28;20060;-87
2022/09/02 10:32:54;;;;;;;4.22;2.20;;;;;;;;;;4983359;28;20038;-86
2022/09/02 10:35:44;;;;;;;9.15;1.75;;;;;;;;;;4963082;28;20113;-87
2022/09/02 10:38:29;;;;;;;2.63;1.67;;;;;;;;;;4955929;28;20834;-86
2022/09/02 10:40:59;;;;;;;7.63;1.75;;;;;;;;;;4963319;28;20038;-87
2022/09/02 10:43:29;;;;;;;4.13;2.05;;;;;;;;;;4968517;28;20478;-86
2022/09/02 10:45:59;;;;;;;6.60;1.88;;;;;;;;;;4980980;28;20117;-90
2022/09/02 10:48:47;;;;;;;13.30;2.50;;;;;;;;;;4966816;28;20409;-90
2022/09/02 10:51:43;;;;;;;5.07;1.90;;;;;;;;;;4967215;28;20049;-89
2022/09/02 10:54:21;;;;;;;5.33;2.00;;;;;;;;;;4943830;28;20042;-89
2022/09/02 10:56:53;;;;;;;4.40;1.73;;;;;;;;;;4966293;28;20396;-89
2022/09/02 10:59:34;;;;;;;4.28;1.50;;;;;;;;;;4967573;28;20144;-89
2022/09/02 11:02:06;;;;;;;2.72;1.98;;;;;;;;;;4974568;28;20041;-89
2022/09/02 11:04:41;;;;;;;5.68;1.70;;;;;;;;;;4975048;28;20037;-87
2022/09/02 11:07:09;;;;;;;3.00;1.77;;;;;;;;;;4966668;28;20027;-87
2022/09/02 11:10:08;;;;;;;2.33;2.00;;;;;;;;;;4964180;28;20487;-86
2022/09/02 11:12:37;;;;;;;4.93;1.73;;;;;;;;;;4938162;28;20057;-86
2022/09/02 11:15:16;;;;;;;1.95;1.70;;;;;;;;;;4959581;28;20407;-86
2022/09/02 11:17:46;;;;;;;5.85;1.88;;;;;;;;;;4962112;28;20031;-86
2022/09/02 11:20:24;;;;;;;1.83;1.65;;;;;;;;;;4965320;28;20149;-86
2022/09/02 11:23:23;;;;;;;4.88;1.70;;;;;;;;;;4975104;28;20089;-86
2022/09/02 11:26:07;;;;;;;6.50;1.52;;;;;;;;;;4958543;28;20529;-86
2022/09/02 11:28:33;;;;;;;2.92;1.70;;;;;;;;;;4954442;28;20506;-86
2022/09/02 11:31:10;;;;;;;2.40;1.58;;;;;;;;;;4958130;28;20026;-87
2022/09/02 11:33:36;;;;;;;4.25;1.70;;;;;;;;;;4978963;28;20062;-86
2022/09/02 11:36:02;;;;;;;5.25;1.50;;;;;;;;;;4977635;28;20130;-87
2022/09/02 11:38:28;;;;;;;8.20;2.03;;;;;;;;;;4964561;28;20548;-86
2022/09/02 11:40:54;;;;;;;7.70;1.63;;;;;;;;;;4977337;28;20026;-86
2022/09/02 11:43:23;;;;;;;7.38;2.20;;;;;;;;;;4958375;28;20519;-86
2022/09/02 11:45:55;;;;;;;4.03;1.10;;;;;;;;;;4976855;28;20158;-87
2022/09/02 11:48:21;;;;;;;3.58;1.95;;;;;;;;;;4960988;28;20060;-87
2022/09/02 11:50:50;;;;;;;2.17;1.30;;;;;;;;;;4962226;28;20034;-86
2022/09/02 11:53:24;;;;;;;4.95;1.63;;;;;;;;;;4959391;28;20513;-86
2022/09/02 11:56:09;;;;;;;3.60;1.40;;;;;;;;;;4963208;28;20563;-87
2022/09/02 11:58:36;;;;;;;8.17;1.50;;;;;;;;;;4977235;28;20160;-86
2022/09/02 12:01:14;;;;;;;4.20;1.70;;;;;;;;;;4963647;28;20077;-86
2022/09/02 12:04:04;;;;;;;7.03;2.05;;;;;;;;;;4981276;28;20482;-87
2022/09/02 12:06:30;;;;;;;3.45;1.35;;;;;;;;;;4960483;28;20046;-86
2022/09/02 12:08:57;;;;;;;5.53;2.03;;;;;;;;;;4973426;28;20054;-86
2022/09/02 12:11:41;;;;;;;4.05;1.67;;;;;;;;;;4952818;28;20046;-86
2022/09/02 12:14:25;;;;;;;6.53;1.30;;;;;;;;;;4959550;28;20513;-86
2022/09/02 12:17:01;;;;;;;1.73;1.10;;;;;;;;;;4962183;28;20038;-87
2022/09/02 12:19:29;;;;;;;9.93;1.50;;;;;;;;;;4967233;28;20058;-87
2022/09/02 12:22:13;;;;;;;2.90;1.60;;;;;;;;;;4981000;28;20470;-87
2022/09/02 12:24:55;;;;;;;2.95;1.60;;;;;;;;;;4960004;28;20451;-87
2022/09/02 12:27:35;;;;;;;5.53;1.23;;;;;;;;;;4945706;28;20039;-86
2022/09/02 12:30:03;;;;;;;2.30;1.40;;;;;;;;;;4962612;28;20704;-86
2022/09/02 12:32:44;;;;;;;2.13;1.13;;;;;;;;;;4944187;28;20031;-86
2022/09/02 12:35:12;;;;;;;2.95;1.50;;;;;;;;;;4957816;28;20609;-86
2022/09/02 12:37:58;;;;;;;4.20;1.30;;;;;;;;;;4958745;28;20023;-86
2022/09/02 12:40:33;;;;;;;27.13;2.20;;;;;;;;;;4941090;28;20049;-86
2022/09/02 12:43:00;;;;;;;;;;;;;;;;;;4957309;28;20487;-87
2022/09/02 12:45:27;;;;;;;9.13;1.83;;;;;;;;;;4948258;28;20433;-87
2022/09/02 12:48:00;;;;;;;7.55;1.65;;;;;;;;;;4936620;28;20129;-87
2022/09/02 12:50:31;;;;;;;4.22;1.30;;;;;;;;;;4959210;28;20026;-87
2022/09/02 12:53:21;;;;;;;3.42;1.25;;;;;;;;;;4953767;28;20364;-87
2022/09/02 12:56:10;;;;;;;4.57;1.40;;;;;;;;;;4911015;28;20045;-87
2022/09/02 12:58:47;;;;;;;5.45;1.23;;;;;;;;;;4942895;28;20483;-86
2022/09/02 13:01:18;;;;;;;3.33;1.20;;;;;;;;;;4958857;28;20055;-87
2022/09/02 13:04:02;;;;;;;3.67;1.30;;;;;;;;;;4962633;28;20054;-87
2022/09/02 13:06:31;;;;;;;2.25;1.50;;;;;;;;;;4965542;28;20046;-87
2022/09/02 13:09:16;;;;;;;3.60;1.20;;;;;;;;;;4959571;28;20694;-87
2022/09/02 13:11:57;;;;;;;1.53;1.30;;;;;;;;;;4960310;28;20483;-88
2022/09/02 13:14:23;;;;;;;5.38;1.40;;;;;;;;;;4943768;28;20091;-88
2022/09/02 13:17:09;;;;;;;3.53;1.02;;;;;;;;;;4947315;28;20917;-88
2022/09/02 13:19:41;;;;;;;1.80;1.10;;;;;;;;;;4946343;28;20047;-88
2022/09/02 13:22:12;;;;;;;3.92;1.00;;;;;;;;;;4940445;28;20023;-88
2022/09/02 13:24:59;;;;;;;1.42;1.30;;;;;;;;;;4979883;28;20983;-87
2022/09/02 13:27:25;;;;;;;5.97;1.40;;;;;;;;;;4962917;28;20032;-88
2022/09/02 13:30:00;;;;;;;3.67;1.23;;;;;;;;;;4959792;28;20042;-87
2022/09/02 13:32:26;;;;;;;;;;;;;;;;;;4968832;28;20054;-87
2022/09/02 13:34:54;;;;;;;3.65;1.40;;;;;;;;;;4979577;28;19925;-88
2022/09/02 13:37:27;;;;;;;3.60;1.20;;;;;;;;;;4978975;28;20042;-88
2022/09/02 13:39:53;;;;;;;3.90;0.95;;;;;;;;;;4966951;28;20057;-87
2022/09/02 13:42:21;;;;;;;1.67;1.02;;;;;;;;;;4980932;28;20512;-87
2022/09/02 13:44:47;;;;;;;4.57;1.38;;;;;;;;;;4980188;28;20044;-88
2022/09/02 13:47:16;;;;;;;2.00;1.30;;;;;;;;;;4961162;28;20038;-88
2022/09/02 13:49:44;;;;;;;4.80;1.30;;;;;;;;;;4963597;28;20031;-87
2022/09/02 13:52:15;;;;;;;2.70;1.50;;;;;;;;;;4982257;28;20041;-87
2022/09/02 13:54:44;;;;;;;2.40;1.30;;;;;;;;;;4982523;28;20054;-88
2022/09/02 13:57:12;;;;;;;3.65;1.20;;;;;;;;;;4979728;28;20014;-87
2022/09/02 13:59:41;;;;;;;1.75;1.48;;;;;;;;;;4981491;28;20494;-88
2022/09/02 14:02:16;;;;;;;2.17;1.23;;;;;;;;;;4960519;28;20517;-86
2022/09/02 14:04:42;;;;;;;2.70;1.30;;;;;;;;;;4977232;28;20484;-87
2022/09/02 14:07:08;;;;;;;1.52;1.10;;;;;;;;;;4961316;28;20038;-87
2022/09/02 14:09:34;;;;;;;3.33;1.40;;;;;;;;;;4945355;28;20041;-92
2022/09/02 14:12:01;;;;;;;1.20;1.10;;;;;;;;;;4981213;28;20031;-90
2022/09/02 14:14:27;;;;;;;2.25;1.00;;;;;;;;;;4968243;28;20123;-91
2022/09/02 14:17:13;;;;;;;2.20;1.20;;;;;;;;;;4943384;28;20482;-91
2022/09/02 14:19:39;;;;;;;5.97;1.35;;;;;;;;;;4962123;28;20031;-89
2022/09/02 14:22:07;;;;;;;2.03;1.30;;;;;;;;;;4968522;28;20049;-89
2022/09/02 14:24:39;;;;;;;4.18;1.30;;;;;;;;;;4947561;28;20598;-90
2022/09/02 14:27:13;;;;;;;2.65;1.20;;;;;;;;;;4965382;28;20197;-90
2022/09/02 14:29:43;;;;;;;3.35;1.30;;;;;;;;;;4960525;28;20062;-89
2022/09/02 14:32:13;;;;;;;1.70;1.25;;;;;;;;;;4956930;28;20122;-89
2022/09/02 14:34:39;;;;;;;3.80;1.40;;;;;;;;;;4977174;28;20035;-89
2022/09/02 14:37:19;;;;;;;6.97;1.38;;;;;;;;;;4961481;28;20023;-89
2022/09/02 14:40:09;;;;;;;2.75;1.30;;;;;;;;;;4978745;28;20030;-88
2022/09/02 14:42:45;;;;;;;5.45;1.33;;;;;;;;;;4974842;28;20082;-88
2022/09/02 14:45:11;;;;;;;2.88;1.38;;;;;;;;;;4967830;28;20041;-89
2022/09/02 14:47:38;;;;;;;2.53;1.13;;;;;;;;;;4963160;28;20513;-89
2022/09/02 14:50:09;;;;;;;1.92;1.10;;;;;;;;;;4967631;28;20033;-88
2022/09/02 14:52:37;;;;;;;1.10;1.00;;;;;;;;;;4982178;28;20046;-89
2022/09/02 14:55:05;;;;;;;2.28;1.33;;;;;;;;;;4952864;28;20651;-90
2022/09/02 14:57:37;;;;;;;4.93;0.98;;;;;;;;;;4964289;28;20026;-89
2022/09/02 15:00:13;;;;;;;2.92;1.42;;;;;;;;;;4954962;28;20031;-89